Weather observations for the past three days for
Ortonville, Ortonville Muncipal-Martinson Field Airport
Imperial (Metric)
Date Time (cdt) Wind (mph) Vis. (mi.) Weather Sky Cond. Temperature (ºF) Relative Humidity Wind Chill (°F) Heat Index (°F) Pressure Precipitation (in)
Air Dwpt 6 hour altimeter (in) sea level (mb) 1 hr 3 hr 6 hr
Max. Min.
07 15:15 NW 12 G 17 10.00 Fair CLR 59 21.2 23% 29.84 0.0
07 14:55 NW 6 10.00 Fair CLR 57.2 23 27% 29.84 0.0
07 14:35 Calm 10.00 Fair CLR 57.2 21.2 25% 29.85 0.0
07 14:15 NW 10 10.00 Partly Cloudy SCT110 57.2 23 27% 29.85 0.0
07 13:55 Calm 10.00 Partly Cloudy SCT100 57.2 23 27% 29.85 0.0
07 13:35 Calm 10.00 Fair CLR 55.4 23 28% 29.85 0.0
07 13:15 Calm 10.00 Fair CLR 55.4 21.2 26% 29.86 0.0
07 12:55 Calm 10.00 Fair CLR 55.4 24.8 31% 29.87 0.0
07 12:35 Calm 10.00 Fair CLR 53.6 21.2 28% 29.88 0.0
07 12:15 NW 3 10.00 Fair CLR 53.6 24.8 33% 29.89 0.0
07 11:55 Calm 10.00 Fair CLR 53.6 23 30% 29.89 0.0
07 11:35 Calm 10.00 Fair CLR 53.6 21.2 28% 29.9 0.0
07 11:15 Calm 10.00 Fair CLR 51.8 24.8 35% 29.9 0.0
07 10:55 Calm 10.00 Fair CLR 51.8 24.8 35% 29.9 0.0
07 10:35 Calm 10.00 Fair CLR 50 26.6 40% 29.9 0.0
07 10:15 Calm 10.00 Fair CLR 50 28.4 43% 29.9 0.0
07 09:55 Calm 10.00 Fair CLR 48.2 28.4 46% 29.9 0.0
07 09:35 Calm 10.00 Fair CLR 48.2 30.2 50% 29.9 0.0
07 09:15 Calm 10.00 Fair CLR 46.4 28.4 50% 29.9 0.0
07 08:55 Calm 10.00 Fair CLR 44.6 30.2 57% 29.9 0.0
07 08:35 Calm 10.00 Fair CLR 41 30.2 66% 29.9 0.0
07 08:15 Calm 10.00 Fair CLR 39.2 28.4 65% 29.9 0.0
07 07:55 Calm 10.00 Fair CLR 37.4 26.6 65% 29.89 0.0
07 07:35 Calm 10.00 Fair CLR 37.4 26.6 65% 29.89 0.0
07 07:15 Calm 10.00 Fair CLR 35.6 26.6 70% 29.9 0.0
07 06:55 Calm 10.00 Fair CLR 33.8 24.8 70% 29.9 0.0
07 06:35 Calm 10.00 Fair CLR 32 24.8 75% 29.89 0.0
07 06:15 Calm 10.00 Fair CLR 30.2 24.8 80% 29.9 0.0
07 05:55 Calm 10.00 Fair CLR 30.2 26.6 86% 29.9 0.0
07 05:35 Calm 10.00 Fair CLR 30.2 24.8 80% 29.9 0.0
07 05:15 Calm 10.00 Fair CLR 30.2 24.8 80% 29.9 0.0
07 04:55 Calm 10.00 Fair CLR 30.2 24.8 80% 29.9 0.0
07 04:35 Calm 10.00 Fair CLR 30.2 24.8 80% 29.9 0.0
07 04:15 Calm 10.00 Fair CLR 30.2 24.8 80% 29.91 0.0
07 03:55 Calm 10.00 Fair CLR 30.2 24.8 80% 29.91 0.0
07 03:35 Calm 10.00 Fair CLR 30.2 24.8 80% 29.91 0.0
07 03:15 Calm 10.00 Fair CLR 30.2 26.6 86% 29.92 0.0
07 02:55 Calm 10.00 Mostly Cloudy BKN100 30.2 26.6 86% 29.92 0.0
07 02:35 Calm 10.00 Mostly Cloudy BKN095 30.2 26.6 86% 29.92 0.0
07 02:15 Calm 10.00 Partly Cloudy SCT095 30.2 26.6 86% 29.93 0.0
07 01:55 Calm 10.00 Partly Cloudy SCT095 32 26.6 80% 29.93 0.0
07 01:35 Calm 10.00 Partly Cloudy SCT095 33.8 26.6 75% 29.94 0.0
07 01:15 Calm 10.00 Fair CLR 32 26.6 80% 29.94 0.0
07 00:55 Calm 10.00 Fair CLR 30.2 26.6 86% 29.94 0.0
07 00:35 Calm 10.00 Fair CLR 32 26.6 80% 29.94 0.0
07 00:15 Calm 10.00 Fair CLR 32 24.8 75% 29.95 0.0
06 23:55 Calm 10.00 Fair CLR 33.8 26.6 75% 29.96 0.0
06 23:35 Calm 10.00 Fair CLR 35.6 26.6 70% 29.97 0.0
06 23:15 Calm 10.00 Fair CLR 35.6 26.6 70% 29.97 0.0
06 22:55 Calm 10.00 Fair CLR 37.4 26.6 65% 29.97 0.0
06 22:35 Calm 10.00 Fair CLR 37.4 24.8 60% 29.98 0.0
06 22:15 Calm 10.00 Fair CLR 37.4 26.6 65% 29.98 0.0
06 21:55 Calm 10.00 Fair CLR 37.4 26.6 65% 29.98 0.0
06 21:35 Calm 10.00 Fair CLR 37.4 26.6 65% 29.98 0.0
06 21:15 Calm 10.00 Fair CLR 39.2 26.6 61% 29.97 0.0
06 20:55 Calm 10.00 Fair CLR 41 24.8 53% 29.97 0.0
06 20:35 Calm 10.00 Fair CLR 41 24.8 53% 29.96 0.0
06 20:15 Calm 10.00 Fair CLR 42.8 24.8 49% 29.97 0.0
06 19:55 Calm 10.00 Fair CLR 44.6 24.8 46% 29.96 0.0
06 19:35 Calm 10.00 Partly Cloudy SCT070 44.6 24.8 46% 29.97 0.0
06 19:15 N 6 10.00 Mostly Cloudy BKN070 46.4 24.8 43% 44 29.97 0.0
06 18:55 Calm 10.00 Overcast OVC070 44.6 24.8 46% 29.97 0.0
06 18:35 Calm 10.00 Overcast OVC080 46.4 24.8 43% 29.98 0.0
06 18:15 NW 12 10.00 Overcast OVC070 46.4 23 40% 42 29.99 0.0
06 17:55 Calm 10.00 Overcast OVC070 46.4 23 40% 29.99 0.0
06 17:35 NW 5 10.00 Overcast OVC070 46.4 24.8 43% 45 29.99 0.0
06 17:15 NW 6 G 17 10.00 Overcast OVC070 46.4 24.8 43% 44 29.99 0.0
06 16:55 NW 13 G 18 10.00 Overcast OVC070 46.4 23 40% 41 30 0.0
06 16:35 NW 13 G 17 10.00 Overcast OVC060 46.4 23 40% 41 30 0.0
06 16:15 NW 9 10.00 Overcast OVC060 46.4 23 40% 42 30.01 0.0
06 15:55 NW 7 G 20 10.00 Overcast OVC060 44.6 23 43% 41 30.01 0.0
06 15:35 W 13 G 17 10.00 Overcast OVC060 44.6 24.8 46% 39 30.02 0.0
06 15:15 NW 14 G 20 10.00 Overcast OVC060 44.6 24.8 46% 39 30.02 0.0
06 14:55 NW 13 10.00 Overcast OVC060 44.6 24.8 46% 39 30.03 0.0
06 14:35 Calm 10.00 Overcast OVC049 44.6 24.8 46% 30.03 0.0
06 14:15 Calm 10.00 Overcast OVC049 44.6 24.8 46% 30.04 0.0
06 13:55 NW 9 10.00 Overcast OVC049 42.8 24.8 49% 38 30.04 0.0
06 13:35 NW 10 10.00 Overcast OVC049 44.6 24.8 46% 40 30.04 0.0
06 13:15 NW 9 10.00 Overcast OVC049 42.8 24.8 49% 38 30.05 0.0
06 12:55 Calm 10.00 Overcast OVC049 42.8 24.8 49% 30.05 0.0
06 12:35 NW 13 G 17 10.00 Overcast OVC049 42.8 24.8 49% 37 30.06 0.0
06 12:15 NW 12 G 16 10.00 Overcast OVC049 42.8 24.8 49% 37 30.06 0.0
06 11:55 W 12 10.00 Overcast OVC045 41 23 49% 35 30.07 0.0
06 11:35 NW 6 G 16 10.00 Overcast OVC043 39.2 23 52% 36 30.07 0.0
06 11:15 NW 10 10.00 Overcast OVC043 39.2 24.8 56% 33 30.07 0.0
06 10:55 NW 10 G 18 10.00 Overcast OVC043 39.2 23 52% 33 30.07 0.0
06 10:35 NW 8 10.00 Overcast SCT037 OVC046 39.2 24.8 56% 34 30.07 0.0
06 10:15 Calm 10.00 Overcast SCT036 OVC048 39.2 24.8 56% 30.07 0.0
06 09:55 NW 9 10.00 Overcast OVC048 39.2 24.8 56% 34 30.07 0.0
06 09:35 NW 10 10.00 Overcast OVC048 37.4 24.8 60% 31 30.07 0.0
06 09:15 Calm 10.00 Overcast OVC050 37.4 26.6 65% 30.07 0.0
06 08:55 Calm 10.00 Overcast OVC050 37.4 26.6 65% 30.07 0.0
06 08:35 Calm 10.00 Overcast OVC050 37.4 26.6 65% 30.07 0.0
06 08:15 Calm 10.00 Overcast OVC050 37.4 26.6 65% 30.06 0.0
06 07:55 Calm 10.00 Overcast OVC050 37.4 26.6 65% 30.06 0.0
06 07:35 Calm 10.00 Overcast OVC050 37.4 26.6 65% 30.05 0.0
06 07:15 Calm 10.00 Overcast OVC050 37.4 26.6 65% 30.04 0.0
06 06:55 Calm 10.00 Overcast OVC050 37.4 26.6 65% 30.03 0.0
06 06:35 Calm 10.00 Overcast OVC050 37.4 26.6 65% 30.02 0.0
06 06:15 Calm 10.00 Overcast OVC050 37.4 26.6 65% 30.02 0.0
06 05:55 Calm 10.00 Overcast OVC050 37.4 26.6 65% 30.01 0.0
06 05:35 Calm 10.00 Overcast OVC050 37.4 26.6 65% 30.01 0.0
06 05:15 Calm 10.00 Overcast OVC050 37.4 26.6 65% 30.01 0.0
06 04:55 Calm 10.00 Overcast OVC050 37.4 26.6 65% 30.01 0.0
06 04:35 Calm 10.00 Overcast OVC050 37.4 26.6 65% 30.01 0.0
06 04:15 Calm 10.00 Overcast OVC050 37.4 26.6 65% 30.01 0.0
06 03:55 Calm 10.00 Overcast OVC050 37.4 28.4 70% 30 0.0
06 03:35 Calm 10.00 Overcast OVC050 37.4 28.4 70% 30 0.0
06 03:15 Calm 10.00 Overcast OVC055 37.4 26.6 65% 30 0.0
06 02:55 Calm 10.00 Overcast OVC055 37.4 28.4 70% 30 0.0
06 02:35 Calm 10.00 Overcast OVC065 37.4 28.4 70% 30 0.0
06 02:15 NW 7 10.00 Overcast OVC065 37.4 28.4 70% 33 30 0.0
06 01:55 Calm 10.00 Overcast OVC065 37.4 28.4 70% 30 0.0
06 01:35 Calm 10.00 Overcast OVC065 37.4 28.4 70% 30 0.0
06 01:15 Calm 10.00 Mostly Cloudy BKN065 37.4 28.4 70% 30 0.0
06 00:55 NW 6 10.00 Fair CLR 35.6 28.4 75% 31 30 0.0
06 00:35 Calm 10.00 Fair CLR 37.4 26.6 65% 30 0.0
06 00:15 Calm 10.00 Fair CLR 37.4 26.6 65% 29.99 0.0
05 23:55 NW 3 10.00 Fair CLR 35.6 24.8 65% 29.99 0.0
05 23:35 Calm 10.00 Mostly Cloudy BKN065 37.4 24.8 60% 29.99 0.0
05 23:15 Calm 10.00 Overcast OVC065 39.2 24.8 56% 29.99 0.0
05 22:55 Calm 10.00 Overcast OVC075 39.2 26.6 61% 29.99 0.0
05 22:35 Calm 10.00 Overcast OVC075 39.2 26.6 61% 29.98 0.0
05 22:15 Calm 10.00 Mostly Cloudy BKN075 37.4 26.6 65% 29.98 0.0
05 21:55 Calm 10.00 Mostly Cloudy BKN075 39.2 26.6 61% 29.97 0.0
05 21:35 Calm 10.00 Overcast OVC075 39.2 26.6 61% 29.97 0.0
05 21:15 Calm 10.00 Overcast OVC075 39.2 26.6 61% 29.96 0.0
05 20:55 Calm 10.00 Overcast OVC075 41 24.8 53% 29.95 0.0
05 20:35 N 3 10.00 Overcast OVC075 42.8 24.8 49% 29.94 0.0
05 20:15 Calm 10.00 Mostly Cloudy BKN075 42.8 24.8 49% 29.94 0.0
05 19:55 N 12 10.00 Partly Cloudy SCT060 42.8 24.8 49% 37 29.93 0.0
05 19:35 N 14 10.00 Mostly Cloudy BKN070 44.6 24.8 46% 39 29.93 0.0
05 19:15 N 12 10.00 Mostly Cloudy BKN070 44.6 24.8 46% 39 29.93 0.0
05 18:55 N 16 10.00 Overcast OVC060 44.6 24.8 46% 38 29.92 0.0
05 18:35 N 14 10.00 Mostly Cloudy SCT060 BKN070 44.6 24.8 46% 39 29.92 0.0
05 18:15 NW 16 G 21 10.00 Mostly Cloudy SCT060 BKN070 44.6 24.8 46% 38 29.92 0.0
05 17:35 N 12 G 17 10.00 Overcast OVC070 46.4 24.8 43% 42 29.92 0.0
05 17:15 N 16 G 22 10.00 Overcast OVC070 44.6 24.8 46% 38 29.92 0.0
05 16:55 NW 15 10.00 Overcast BKN060 OVC075 46.4 24.8 43% 41 29.91 0.0
05 16:35 NW 13 G 17 10.00 Overcast SCT060 OVC075 46.4 24.8 43% 41 29.91 0.0
05 16:15 NW 12 G 20 10.00 Overcast SCT060 OVC070 46.4 24.8 43% 42 29.91 0.0
05 15:55 NW 16 G 22 10.00 Overcast BKN060 OVC070 46.4 24.8 43% 40 29.91 0.0
05 15:35 NW 17 G 21 10.00 Overcast SCT060 OVC070 48.2 24.8 40% 42 29.91 0.0
05 15:15 NW 12 G 22 10.00 Overcast OVC070 48.2 24.8 40% 44 29.91 0.0
05 14:55 NW 17 G 24 10.00 Overcast OVC070 46.4 24.8 43% 40 29.91 0.0
05 14:35 NW 13 G 23 10.00 Overcast OVC070 48.2 23 37% 43 29.91 0.0
05 14:15 NW 16 G 25 10.00 Mostly Cloudy BKN070 48.2 21.2 34% 43 29.91 0.0
05 13:55 NW 13 G 25 10.00 Mostly Cloudy SCT060 BKN070 48.2 23 37% 43 29.91 0.0
05 13:35 NW 18 G 26 10.00 Mostly Cloudy BKN070 46.4 23 40% 40 29.91 0.0
05 13:15 NW 17 G 24 10.00 Partly Cloudy SCT070 SCT075 46.4 23 40% 40 29.9 0.0
05 12:55 NW 15 G 18 10.00 Mostly Cloudy BKN070 46.4 21.2 37% 41 29.9 0.0
05 12:35 NW 14 G 25 10.00 Mostly Cloudy BKN070 BKN080 46.4 21.2 37% 41 29.9 0.0
05 12:15 NW 10 G 17 10.00 Overcast OVC070 46.4 21.2 37% 42 29.9 0.0
05 11:55 NW 12 G 21 10.00 Overcast SCT060 OVC070 44.6 21.2 39% 39 29.9 0.0
05 11:35 NW 9 G 22 10.00 Overcast SCT060 OVC070 44.6 23 43% 40 29.9 0.0
05 11:15 NW 15 G 24 10.00 Overcast BKN060 OVC070 46.4 23 40% 41 29.89 0.0
05 10:55 NW 12 G 22 10.00 Mostly Cloudy BKN060 46.4 23 40% 42 29.89 0.0
05 10:35 NW 17 G 23 10.00 Partly Cloudy SCT060 46.4 21.2 37% 40 29.89 0.0
05 10:15 NW 20 G 24 10.00 Fair CLR 46.4 21.2 37% 40 29.89 0.0
05 09:55 NW 16 G 23 10.00 Fair CLR 44.6 21.2 39% 38 29.88 0.0
05 09:35 NW 9 G 21 10.00 Fair CLR 44.6 23 43% 40 29.88 0.0
05 09:15 NW 14 G 18 10.00 Fair CLR 44.6 24.8 46% 39 29.87 0.0
05 08:55 NW 13 G 18 10.00 Fair CLR 42.8 28.4 57% 37 29.87 0.0
05 08:35 Calm 10.00 Fair CLR 39.2 32 75% 29.87 0.0
05 08:15 Calm 10.00 Fair CLR 39.2 32 75% 29.86 0.0
05 07:55 Calm 10.00 Fair CLR 37.4 32 81% 29.86 0.0
05 07:35 Calm 10.00 Fair CLR 37.4 32 81% 29.85 0.0
05 07:15 Calm 10.00 Fair CLR 35.6 32 87% 29.84 0.0
05 06:55 Calm 10.00 Fair CLR 33.8 30.2 87% 29.84 0.0
05 06:35 Calm 10.00 Fair CLR 33.8 30.2 87% 29.83 0.0
05 06:15 Calm 10.00 Fair CLR 33.8 30.2 87% 29.83 0.0
05 05:55 Calm 10.00 Partly Cloudy SCT075 33.8 30.2 87% 29.83 0.0
05 05:35 Calm 10.00 Partly Cloudy SCT080 33.8 30.2 87% 29.83 0.0
05 05:15 Calm 10.00 Fair CLR 33.8 30.2 87% 29.83 0.0
05 04:55 Calm 10.00 Fair CLR 33.8 30.2 87% 29.82 0.0
05 04:35 Calm 10.00 Fair CLR 32 28.4 87% 29.82 0.0
05 04:15 Calm 10.00 Fair CLR 33.8 28.4 81% 29.82 0.0
05 03:55 Calm 10.00 Fair CLR 35.6 28.4 75% 29.81 0.0
05 03:35 Calm 10.00 Fair CLR 35.6 28.4 75% 29.81 0.0
05 03:15 Calm 10.00 Fair CLR 37.4 28.4 70% 29.81 0.0
05 02:55 Calm 10.00 Fair CLR 37.4 28.4 70% 29.81 0.0
05 02:35 Calm 10.00 Fair CLR 35.6 28.4 75% 29.81 0.0
05 02:15 Calm 10.00 Fair CLR 37.4 28.4 70% 29.81 0.0
05 01:55 Calm 10.00 Fair CLR 37.4 28.4 70% 29.81 0.0
05 01:35 Calm 10.00 Fair CLR 37.4 28.4 70% 29.8 0.0
05 01:15 Calm 10.00 Fair CLR 37.4 30.2 75% 29.8 0.0
05 00:55 Calm 10.00 Fair CLR 39.2 30.2 70% 29.79 0.0
05 00:35 Calm 10.00 Fair CLR 39.2 30.2 70% 29.79 0.0
05 00:15 Calm 10.00 Fair CLR 41 30.2 66% 29.79 0.0
04 23:55 Calm 10.00 Fair CLR 42.8 30.2 61% 29.78 0.0
04 23:35 Calm 10.00 Fair CLR 42.8 30.2 61% 29.79 0.0
04 23:15 Calm 10.00 Fair CLR 42.8 30.2 61% 29.78 0.0
04 22:55 Calm 10.00 Fair CLR 44.6 30.2 57% 29.78 0.0
04 22:35 Calm 10.00 Fair CLR 44.6 30.2 57% 29.78 0.0
04 22:15 Calm 10.00 Fair CLR 44.6 30.2 57% 29.78 0.0
04 21:55 Calm 10.00 Fair CLR 44.6 28.4 53% 29.77 0.0
04 21:35 NW 5 10.00 Partly Cloudy SCT085 44.6 28.4 53% 43 29.77 0.0
04 21:15 NW 7 10.00 Mostly Cloudy BKN085 46.4 28.4 50% 43 29.76 0.0
04 20:55 NW 9 10.00 Overcast OVC085 48.2 26.6 43% 45 29.75 0.0
04 20:35 NW 16 G 21 10.00 Overcast OVC085 48.2 26.6 43% 43 29.74 0.0
04 20:15 NW 14 G 20 10.00 Overcast OVC085 48.2 26.6 43% 43 29.74 0.0
04 19:55 NW 12 G 20 10.00 Partly Cloudy SCT085 48.2 26.6 43% 44 29.73 0.0
04 19:35 NW 18 G 28 10.00 Partly Cloudy SCT070 50 24.8 37% 44 29.73 0.0
04 19:15 NW 20 G 28 10.00 Partly Cloudy SCT070 51.8 26.6 38% 29.72 0.0
04 18:55 NW 17 G 24 10.00 Partly Cloudy SCT070 51.8 26.6 38% 29.72 0.0
04 18:35 NW 17 G 25 10.00 Partly Cloudy SCT070 51.8 26.6 38% 29.72 0.0
04 18:15 NW 20 G 28 10.00 Partly Cloudy SCT070 51.8 26.6 38% 29.72 0.0
04 17:55 NW 13 G 29 10.00 Fair CLR 50 26.6 40% 46 29.72 0.0
04 17:35 NW 22 G 33 10.00 Fair and Breezy CLR 51.8 24.8 35% 29.72 0.0
04 17:15 NW 17 G 31 10.00 Partly Cloudy SCT070 51.8 26.6 38% 29.72 0.0
04 16:55 NW 18 G 32 10.00 Partly Cloudy SCT070 51.8 24.8 35% 29.71 0.0
04 15:55 NW 25 G 33 10.00 Partly Cloudy and Breezy SCT070 53.6 26.6 35% 29.69 0.0
04 15:35 NW 22 G 32 10.00 Partly Cloudy and Breezy SCT060 53.6 26.6 35% 29.7 0.0
Date Time (cdt) Wind (mph) Vis. (mi.) Weather Sky Cond. Air Dwpt Max. Min. Relative Humidity Wind Chill (°F) Heat Index (°F) altimeter (in) sea level (mb) 1 hr 3 hr 6 hr
6 hour
Temperature (ºF) Pressure Precipitation (in)